Time;durP1;ratioP1;P1;durP2;ratioP2;P2;SDS_P1;SDS_P2;PMS_P1;PMS_P2;Temp;Humidity;BMP_temperature;BMP_pressure;BME280_temperature;BME280_humidity;BME280_pressure;Samples;Min_cycle;Max_cycle;Signal;HPM_P1;HPM_P2
2023/11/07 00:00:19;;;;;;;12.82;3.80;;;9.60;99.90;;;;;;5032793;28;20018;-79
2023/11/07 00:02:46;;;;;;;15.20;3.90;;;9.60;99.90;;;;;;5032280;28;20091;-78
2023/11/07 00:05:11;;;;;;;12.10;3.88;;;9.60;99.90;;;;;;5038490;28;20819;-78
2023/11/07 00:07:37;;;;;;;11.65;3.75;;;9.60;99.90;;;;;;5040566;28;20074;-78
2023/11/07 00:10:03;;;;;;;13.45;3.40;;;9.70;99.90;;;;;;5032985;28;20053;-78
2023/11/07 00:12:29;;;;;;;11.70;3.47;;;9.60;99.90;;;;;;5035855;28;20422;-78
2023/11/07 00:14:56;;;;;;;10.15;3.92;;;9.60;99.90;;;;;;5039868;28;20113;-78
2023/11/07 00:17:22;;;;;;;11.10;3.53;;;9.60;99.90;;;;;;5034816;28;20025;-78
2023/11/07 00:19:47;;;;;;;11.32;3.67;;;9.60;99.90;;;;;;5033158;28;20140;-78
2023/11/07 00:22:14;;;;;;;13.20;3.65;;;9.60;99.90;;;;;;5036984;28;20028;-77
2023/11/07 00:24:40;;;;;;;15.88;5.10;;;9.60;99.90;;;;;;5040605;28;20439;-78
2023/11/07 00:27:06;;;;;;;15.38;4.30;;;9.60;99.90;;;;;;5032601;28;20051;-77
2023/11/07 00:29:32;;;;;;;11.45;3.90;;;9.60;99.90;;;;;;5033689;28;20070;-78
2023/11/07 00:31:57;;;;;;;13.60;4.10;;;9.60;99.90;;;;;;5030449;28;20025;-78
2023/11/07 00:34:23;;;;;;;11.48;4.05;;;9.60;99.90;;;;;;5036967;28;20022;-78
2023/11/07 00:36:49;;;;;;;9.23;2.97;;;9.50;99.90;;;;;;5040888;28;20098;-78
2023/11/07 00:39:16;;;;;;;15.27;4.57;;;9.50;99.90;;;;;;5034378;28;20024;-78
2023/11/07 00:41:44;;;;;;;11.65;3.83;;;9.50;99.90;;;;;;5032944;28;20044;-78
2023/11/07 00:44:10;;;;;;;9.27;3.00;;;9.60;99.90;;;;;;5019424;28;20024;-79
2023/11/07 00:46:36;;;;;;;16.85;3.60;;;9.60;99.90;;;;;;5034528;28;20672;-78
2023/11/07 00:49:02;;;;;;;11.20;3.30;;;9.60;99.90;;;;;;5040541;28;20128;-78
2023/11/07 00:51:28;;;;;;;13.93;3.55;;;9.60;99.90;;;;;;5037211;28;20032;-78
2023/11/07 00:53:53;;;;;;;13.50;3.85;;;9.50;99.90;;;;;;5032183;28;20033;-78
2023/11/07 00:56:19;;;;;;;9.27;2.88;;;9.50;99.90;;;;;;5038711;28;20025;-78
2023/11/07 00:58:48;;;;;;;9.07;3.53;;;9.50;99.90;;;;;;5026462;28;20059;-78
2023/11/07 01:01:16;;;;;;;14.80;3.60;;;9.50;99.90;;;;;;5042680;28;20116;-79
2023/11/07 01:03:43;;;;;;;13.10;3.80;;;9.40;99.90;;;;;;5036042;28;20029;-80
2023/11/07 01:06:09;;;;;;;11.85;3.03;;;9.40;99.90;;;;;;5040494;28;20055;-78
2023/11/07 01:08:34;;;;;;;11.18;3.50;;;9.40;99.90;;;;;;5033573;28;20017;-77
2023/11/07 01:11:00;;;;;;;11.00;3.28;;;9.40;99.90;;;;;;5033340;28;20124;-78
2023/11/07 01:13:27;;;;;;;10.77;3.60;;;9.40;99.90;;;;;;5040177;28;20108;-79
2023/11/07 01:15:53;;;;;;;9.45;3.35;;;9.40;99.90;;;;;;5037759;28;20032;-79
2023/11/07 01:18:18;;;;;;;11.52;3.38;;;9.40;99.90;;;;;;5030662;28;20021;-78
2023/11/07 01:20:45;;;;;;;9.43;3.58;;;9.40;99.90;;;;;;5037121;28;20033;-78
2023/11/07 01:23:12;;;;;;;11.07;3.55;;;9.40;99.90;;;;;;5040218;28;20033;-78
2023/11/07 01:25:38;;;;;;;10.77;3.40;;;9.40;99.90;;;;;;5032598;28;20122;-78
2023/11/07 01:28:04;;;;;;;9.52;3.15;;;9.40;99.90;;;;;;5032675;28;20075;-78
2023/11/07 01:30:29;;;;;;;11.60;3.75;;;9.40;99.90;;;;;;5040232;28;20024;-78
2023/11/07 01:32:56;;;;;;;11.93;3.33;;;9.40;99.90;;;;;;5038461;28;20027;-78
2023/11/07 01:35:21;;;;;;;9.18;3.10;;;9.40;99.90;;;;;;5036384;28;20021;-78
2023/11/07 01:37:47;;;;;;;8.38;3.92;;;9.40;99.90;;;;;;5038838;28;20057;-78
2023/11/07 01:40:13;;;;;;;12.98;3.88;;;9.40;99.90;;;;;;5044033;28;20017;-77
2023/11/07 01:42:45;;;;;;;7.50;2.63;;;9.40;99.90;;;;;;5037151;28;20028;-78
2023/11/07 01:45:12;;;;;;;8.75;3.00;;;9.40;99.90;;;;;;5034592;28;20034;-78
2023/11/07 01:47:40;;;;;;;9.02;3.13;;;9.40;99.90;;;;;;5041631;28;20027;-78
2023/11/07 01:50:10;;;;;;;8.00;3.13;;;9.40;99.90;;;;;;5042947;28;20429;-77
2023/11/07 01:52:37;;;;;;;10.48;3.47;;;9.40;99.90;;;;;;5029920;28;20021;-77
2023/11/07 01:55:05;;;;;;;12.43;3.20;;;9.40;99.90;;;;;;5041699;28;20021;-78
2023/11/07 01:57:31;;;;;;;7.45;2.75;;;9.40;99.90;;;;;;5033790;28;20083;-78
2023/11/07 01:59:57;;;;;;;12.70;3.50;;;9.40;99.90;;;;;;5039760;28;20034;-78
2023/11/07 02:02:23;;;;;;;9.32;3.03;;;9.40;99.90;;;;;;5033164;28;20494;-78
2023/11/07 02:04:48;;;;;;;14.82;3.20;;;9.40;99.90;;;;;;5042349;28;20478;-78
2023/11/07 02:07:15;;;;;;;7.85;2.95;;;9.40;99.90;;;;;;5039769;28;20028;-76
2023/11/07 02:09:41;;;;;;;10.48;3.28;;;9.40;99.90;;;;;;5035280;28;20022;-77
2023/11/07 02:12:10;;;;;;;11.32;3.17;;;9.40;99.90;;;;;;5041019;28;20506;-77
2023/11/07 02:14:36;;;;;;;8.32;3.03;;;9.40;99.90;;;;;;5043212;28;20021;-78
2023/11/07 02:17:05;;;;;;;11.75;3.63;;;9.30;99.90;;;;;;5034776;28;20068;-78
2023/11/07 02:19:32;;;;;;;10.52;3.17;;;9.40;99.90;;;;;;5036138;28;20434;-78
2023/11/07 02:22:01;;;;;;;13.73;3.30;;;9.40;99.90;;;;;;5043275;28;20486;-78
2023/11/07 02:24:30;;;;;;;9.63;2.70;;;9.40;99.90;;;;;;5040818;28;20025;-78
2023/11/07 02:26:56;;;;;;;10.23;2.90;;;9.30;99.90;;;;;;5035265;28;20100;-78
2023/11/07 02:29:22;;;;;;;18.73;3.40;;;9.30;99.90;;;;;;5038768;28;20059;-78
2023/11/07 02:31:49;;;;;;;12.00;2.90;;;9.30;99.90;;;;;;5043502;28;20477;-78
2023/11/07 02:34:14;;;;;;;10.35;3.05;;;9.30;99.90;;;;;;5037475;28;20044;-78
2023/11/07 02:36:40;;;;;;;8.45;2.78;;;9.30;99.90;;;;;;5035321;28;20378;-78
2023/11/07 02:39:07;;;;;;;7.68;2.90;;;9.30;99.90;;;;;;5042846;28;20025;-78
2023/11/07 02:41:33;;;;;;;11.57;2.90;;;9.30;99.90;;;;;;5040463;28;20033;-80
2023/11/07 02:43:59;;;;;;;15.40;3.08;;;9.30;99.90;;;;;;5030296;28;20030;-79
2023/11/07 02:46:26;;;;;;;9.75;2.88;;;9.30;99.90;;;;;;5022439;28;20027;-78
2023/11/07 02:48:51;;;;;;;15.35;3.25;;;9.30;99.90;;;;;;5030359;28;20112;-78
2023/11/07 02:51:17;;;;;;;10.35;2.67;;;9.30;99.90;;;;;;5037485;28;20100;-79
2023/11/07 02:53:44;;;;;;;12.20;3.15;;;9.30;99.90;;;;;;5032967;28;20021;-78
2023/11/07 02:56:11;;;;;;;11.70;2.90;;;9.30;99.90;;;;;;5041898;28;20029;-78
2023/11/07 02:58:37;;;;;;;9.40;2.60;;;9.40;99.90;;;;;;5041438;28;20242;-78
2023/11/07 03:01:02;;;;;;;9.85;2.70;;;9.30;99.90;;;;;;5033913;28;20473;-77
2023/11/07 03:03:28;;;;;;;12.88;2.88;;;9.40;99.90;;;;;;5038125;28;20025;-78
2023/11/07 03:05:54;;;;;;;10.32;3.40;;;9.40;99.90;;;;;;5035413;28;20025;-77
2023/11/07 03:08:20;;;;;;;14.82;2.90;;;9.40;99.90;;;;;;5042237;28;20769;-78
2023/11/07 03:10:46;;;;;;;8.45;2.50;;;9.40;99.90;;;;;;5038476;28;20109;-78
2023/11/07 03:13:13;;;;;;;11.77;3.08;;;9.40;99.90;;;;;;5033915;28;20619;-78
2023/11/07 03:15:39;;;;;;;8.05;2.92;;;9.40;99.90;;;;;;5042416;28;20038;-78
2023/11/07 03:18:05;;;;;;;10.73;3.17;;;9.40;99.90;;;;;;5029647;28;20083;-78
2023/11/07 03:20:32;;;;;;;10.57;3.08;;;9.40;99.90;;;;;;5047092;28;20120;-77
2023/11/07 03:22:58;;;;;;;13.13;3.00;;;9.40;99.90;;;;;;5034546;28;20120;-78
2023/11/07 03:25:25;;;;;;;9.95;3.45;;;9.40;99.90;;;;;;5042040;28;20550;-78
2023/11/07 03:27:51;;;;;;;12.60;2.90;;;9.40;99.90;;;;;;5039777;28;20108;-78
2023/11/07 03:30:17;;;;;;;11.48;3.30;;;9.40;99.90;;;;;;5034249;28;20100;-78
2023/11/07 03:32:44;;;;;;;12.80;3.00;;;9.40;99.90;;;;;;5038219;28;20487;-78
2023/11/07 03:35:10;;;;;;;14.63;3.05;;;9.40;99.90;;;;;;5042289;28;20017;-78
2023/11/07 03:37:35;;;;;;;13.60;3.60;;;9.40;99.90;;;;;;5035778;28;20524;-78
2023/11/07 03:40:03;;;;;;;10.63;3.17;;;9.40;99.90;;;;;;5034268;28;20029;-78
2023/11/07 03:42:29;;;;;;;12.82;2.83;;;9.40;99.90;;;;;;5040020;28;20029;-79
2023/11/07 03:44:54;;;;;;;8.57;3.08;;;9.50;99.90;;;;;;5039974;28;20624;-78
2023/11/07 03:47:21;;;;;;;11.27;3.67;;;9.50;99.90;;;;;;5033734;28;20050;-78
2023/11/07 03:49:47;;;;;;;12.73;2.92;;;9.50;99.90;;;;;;5036931;28;20021;-78
2023/11/07 03:52:13;;;;;;;9.13;3.00;;;9.50;99.90;;;;;;5041692;28;20082;-78
2023/11/07 03:54:38;;;;;;;9.95;3.53;;;9.50;99.90;;;;;;5034211;28;20610;-78
2023/11/07 03:57:04;;;;;;;10.25;3.17;;;9.50;99.90;;;;;;5033339;28;20026;-78
2023/11/07 03:59:30;;;;;;;11.45;3.35;;;9.50;99.90;;;;;;5040826;28;20028;-78
2023/11/07 04:01:56;;;;;;;11.90;3.42;;;9.50;99.90;;;;;;5031237;28;20030;-78
2023/11/07 04:04:22;;;;;;;11.68;3.45;;;9.50;99.90;;;;;;5040819;28;20064;-78
2023/11/07 04:06:50;;;;;;;12.25;3.80;;;9.50;99.90;;;;;;5034034;28;20060;-79
2023/11/07 04:09:17;;;;;;;10.65;3.40;;;9.60;99.90;;;;;;5034385;28;20160;-78
2023/11/07 04:11:43;;;;;;;12.48;3.33;;;9.60;99.90;;;;;;5041230;28;20052;-78
2023/11/07 04:14:10;;;;;;;15.43;4.30;;;9.60;99.90;;;;;;5036530;28;20025;-78
2023/11/07 04:16:36;;;;;;;13.30;3.92;;;9.50;99.90;;;;;;5033169;28;20048;-78
2023/11/07 04:19:02;;;;;;;9.23;3.75;;;9.50;99.90;;;;;;5037872;28;20045;-78
2023/11/07 04:21:28;;;;;;;16.08;4.50;;;9.50;99.90;;;;;;5039623;28;20656;-78
2023/11/07 04:23:53;;;;;;;15.20;4.72;;;9.50;99.90;;;;;;5034257;28;20108;-77
2023/11/07 04:26:20;;;;;;;14.68;4.50;;;9.50;99.90;;;;;;5033791;28;20033;-77
2023/11/07 04:28:46;;;;;;;14.18;4.63;;;9.50;99.90;;;;;;5039392;28;20514;-78
2023/11/07 04:31:12;;;;;;;13.15;4.55;;;9.50;99.90;;;;;;5038326;28;20032;-75
2023/11/07 04:33:38;;;;;;;14.95;4.30;;;9.40;99.90;;;;;;5032440;28;20058;-78
2023/11/07 04:36:05;;;;;;;14.20;4.60;;;9.50;99.90;;;;;;5036217;28;20029;-77
2023/11/07 04:38:31;;;;;;;12.27;4.28;;;9.40;99.90;;;;;;5040526;28;20028;-77
2023/11/07 04:40:57;;;;;;;10.30;4.15;;;9.40;99.90;;;;;;5025692;28;20152;-78
2023/11/07 04:43:25;;;;;;;16.20;5.43;;;9.40;99.90;;;;;;5040529;28;20203;-78
2023/11/07 04:45:51;;;;;;;14.60;4.50;;;9.40;99.90;;;;;;5031463;28;20106;-78
2023/11/07 04:48:19;;;;;;;17.15;5.18;;;9.40;99.90;;;;;;5033448;28;20830;-78
2023/11/07 04:50:45;;;;;;;11.82;4.45;;;9.40;99.90;;;;;;5031291;28;20523;-77
2023/11/07 04:53:10;;;;;;;14.52;4.93;;;9.40;99.90;;;;;;5036382;28;20018;-78
2023/11/07 04:55:36;;;;;;;13.07;4.43;;;9.40;99.90;;;;;;5040526;28;20028;-78
2023/11/07 04:58:02;;;;;;;13.70;4.88;;;9.40;99.90;;;;;;5034970;28;20078;-78
2023/11/07 05:00:28;;;;;;;10.43;4.32;;;9.40;99.90;;;;;;5032362;28;20061;-78
2023/11/07 05:02:55;;;;;;;13.80;4.50;;;9.40;99.90;;;;;;5031127;28;20836;-78
2023/11/07 05:05:20;;;;;;;12.20;4.90;;;9.40;99.90;;;;;;5036493;28;20162;-78
2023/11/07 05:07:46;;;;;;;12.43;4.93;;;9.40;99.90;;;;;;5041673;28;20391;-78
2023/11/07 05:10:12;;;;;;;15.75;5.18;;;9.40;99.90;;;;;;5036994;28;20079;-78
2023/11/07 05:12:39;;;;;;;9.90;4.63;;;9.40;99.90;;;;;;5038169;28;20519;-79
2023/11/07 05:15:05;;;;;;;14.77;5.10;;;9.50;99.90;;;;;;5044476;28;20024;-79
2023/11/07 05:17:31;;;;;;;11.88;4.95;;;9.40;99.90;;;;;;5039717;28;20036;-78
2023/11/07 05:19:57;;;;;;;14.90;5.55;;;9.50;99.90;;;;;;5036150;28;20033;-79
2023/11/07 05:22:23;;;;;;;15.85;5.60;;;9.40;99.90;;;;;;5041828;28;20025;-77
2023/11/07 05:24:51;;;;;;;19.98;6.50;;;9.40;99.90;;;;;;5044131;28;20040;-79
2023/11/07 05:27:17;;;;;;;11.15;4.63;;;9.50;99.90;;;;;;5037228;28;20508;-78
2023/11/07 05:29:42;;;;;;;16.65;5.75;;;9.50;99.90;;;;;;5036893;28;21001;-78
2023/11/07 05:32:08;;;;;;;15.73;6.53;;;9.40;99.90;;;;;;5044364;28;20102;-78
2023/11/07 05:34:39;;;;;;;18.13;5.70;;;9.50;99.90;;;;;;5041026;28;20021;-78
2023/11/07 05:37:04;;;;;;;15.73;6.30;;;9.50;99.90;;;;;;5036647;28;20513;-78
2023/11/07 05:39:30;;;;;;;14.43;5.40;;;9.50;99.90;;;;;;5040038;28;20025;-78
2023/11/07 05:41:56;;;;;;;12.45;5.75;;;9.50;99.90;;;;;;5044233;28;20029;-78
2023/11/07 05:44:22;;;;;;;13.93;5.82;;;9.40;99.90;;;;;;5037555;28;20025;-78
2023/11/07 05:46:49;;;;;;;14.65;6.40;;;9.50;99.90;;;;;;5034786;28;20041;-78
2023/11/07 05:49:16;;;;;;;13.55;5.95;;;9.40;99.90;;;;;;5043852;28;20009;-78
2023/11/07 05:51:42;;;;;;;12.13;6.35;;;9.40;99.90;;;;;;5042229;28;20443;-78
2023/11/07 05:54:09;;;;;;;15.45;5.85;;;9.50;99.90;;;;;;5035297;28;20013;-78
2023/11/07 05:56:35;;;;;;;12.38;6.28;;;9.40;99.90;;;;;;5038194;28;20033;-78
2023/11/07 05:59:03;;;;;;;13.35;6.22;;;9.50;99.90;;;;;;5043594;28;20486;-77
2023/11/07 06:01:28;;;;;;;10.52;5.57;;;9.40;99.90;;;;;;5032428;28;20053;-78
2023/11/07 06:03:54;;;;;;;11.15;5.95;;;9.50;99.90;;;;;;5040514;28;20505;-77
2023/11/07 06:06:20;;;;;;;20.90;6.95;;;9.40;99.90;;;;;;5035852;28;20032;-78
2023/11/07 06:08:46;;;;;;;15.75;6.03;;;9.40;99.90;;;;;;5040730;28;20017;-78
2023/11/07 06:11:12;;;;;;;18.63;6.18;;;9.40;99.90;;;;;;5042288;28;20037;-78
2023/11/07 06:13:37;;;;;;;14.63;6.40;;;9.40;99.90;;;;;;5035878;28;20390;-78
2023/11/07 06:16:05;;;;;;;14.93;6.43;;;9.40;99.90;;;;;;5037168;28;20239;-78
2023/11/07 06:18:30;;;;;;;17.75;7.18;;;9.40;99.90;;;;;;5043119;28;20068;-78
2023/11/07 06:20:56;;;;;;;14.07;6.28;;;9.40;99.90;;;;;;5039143;28;20056;-78
2023/11/07 06:23:23;;;;;;;12.50;6.03;;;9.40;99.90;;;;;;5032079;28;20521;-78
2023/11/07 06:25:49;;;;;;;11.75;6.57;;;9.40;99.90;;;;;;5029220;28;20033;-78
2023/11/07 06:28:15;;;;;;;15.73;6.43;;;9.40;99.90;;;;;;5043282;28;20017;-78
2023/11/07 06:30:42;;;;;;;11.05;5.60;;;9.40;99.90;;;;;;5027260;28;20067;-78
2023/11/07 06:33:09;;;;;;;13.85;7.00;;;9.50;99.90;;;;;;5035471;28;20376;-78
2023/11/07 06:35:34;;;;;;;13.35;7.10;;;9.50;99.90;;;;;;5029686;28;20079;-78
2023/11/07 06:38:00;;;;;;;15.20;7.35;;;9.50;99.90;;;;;;5040232;28;20026;-78
2023/11/07 06:40:26;;;;;;;14.05;6.68;;;9.50;99.90;;;;;;5033239;28;20031;-77
2023/11/07 06:42:52;;;;;;;13.32;7.25;;;9.50;99.90;;;;;;5039316;28;20022;-78
2023/11/07 06:45:18;;;;;;;20.05;7.30;;;9.50;99.90;;;;;;5028729;28;20033;-78
2023/11/07 06:47:45;;;;;;;15.55;6.70;;;9.50;99.90;;;;;;5043623;28;20029;-78
2023/11/07 06:50:13;;;;;;;19.45;7.32;;;9.50;99.90;;;;;;5022623;28;20037;-79
2023/11/07 06:52:47;;;;;;;14.68;6.03;;;9.50;99.90;;;;;;5032997;28;20021;-78
2023/11/07 06:55:13;;;;;;;13.40;6.10;;;9.50;99.90;;;;;;5020997;28;20216;-78
2023/11/07 06:57:40;;;;;;;15.20;6.35;;;9.50;99.90;;;;;;5027490;28;20048;-78
2023/11/07 07:00:08;;;;;;;16.23;6.63;;;9.60;99.90;;;;;;5029767;28;20068;-78
2023/11/07 07:02:35;;;;;;;14.38;6.57;;;9.60;99.90;;;;;;5028137;28;20025;-78
2023/11/07 07:05:03;;;;;;;15.27;7.07;;;9.60;99.90;;;;;;5029580;28;20543;-78
2023/11/07 07:07:33;;;;;;;16.27;6.07;;;9.60;99.90;;;;;;5028511;28;20045;-77
2023/11/07 07:09:58;;;;;;;13.02;6.35;;;9.60;99.90;;;;;;5043884;28;20037;-78
2023/11/07 07:12:24;;;;;;;12.00;6.20;;;9.60;99.90;;;;;;5037417;28;20639;-78
2023/11/07 07:14:50;;;;;;;14.98;6.05;;;9.60;99.90;;;;;;5040360;28;20030;-77
2023/11/07 07:17:19;;;;;;;13.18;6.18;;;9.60;99.90;;;;;;5035027;28;20499;-78
2023/11/07 07:19:45;;;;;;;11.27;5.60;;;9.60;99.90;;;;;;5038359;28;20041;-78
2023/11/07 07:22:11;;;;;;;14.23;6.40;;;9.60;99.90;;;;;;5035351;28;20021;-78
2023/11/07 07:24:38;;;;;;;12.73;6.00;;;9.70;99.90;;;;;;5038007;28;20082;-78
2023/11/07 07:27:04;;;;;;;13.73;5.82;;;9.60;99.90;;;;;;5040986;28;20021;-78
2023/11/07 07:29:29;;;;;;;14.05;6.40;;;9.60;99.90;;;;;;5034840;28;20036;-77
2023/11/07 07:31:57;;;;;;;13.48;7.15;;;9.70;99.90;;;;;;5034839;28;20071;-79
2023/11/07 07:34:23;;;;;;;10.25;6.50;;;9.70;99.90;;;;;;5030355;28;20411;-78
2023/11/07 07:36:50;;;;;;;15.05;6.60;;;9.70;99.90;;;;;;5026549;28;20033;-75
2023/11/07 07:39:28;;;;;;;12.65;6.22;;;9.70;99.90;;;;;;5039567;28;20017;-76
2023/11/07 07:41:55;;;;;;;15.48;6.50;;;9.70;99.90;;;;;;5031270;28;20106;-79
2023/11/07 07:44:24;;;;;;;14.25;7.05;;;9.70;99.90;;;;;;5039778;28;20108;-78
2023/11/07 07:46:51;;;;;;;15.43;6.53;;;9.70;99.90;;;;;;5039453;28;20025;-78
2023/11/07 07:49:17;;;;;;;12.25;6.00;;;9.70;99.90;;;;;;5040737;28;20045;-78
2023/11/07 07:51:45;;;;;;;13.88;6.35;;;9.70;99.90;;;;;;5035541;28;20017;-79
2023/11/07 07:54:11;;;;;;;15.20;6.47;;;9.70;99.90;;;;;;5039254;28;20017;-78
2023/11/07 07:56:37;;;;;;;11.90;5.43;;;9.70;99.90;;;;;;5037107;28;20029;-79
2023/11/07 07:59:05;;;;;;;14.85;6.38;;;9.70;99.90;;;;;;5033021;28;20048;-78
2023/11/07 08:01:31;;;;;;;15.50;6.60;;;9.70;99.90;;;;;;5043221;28;20025;-79
2023/11/07 08:03:56;;;;;;;10.90;5.18;;;9.80;99.90;;;;;;5036137;28;20026;-78
2023/11/07 08:06:22;;;;;;;13.80;5.57;;;9.80;99.90;;;;;;5041325;28;20346;-79
2023/11/07 08:08:48;;;;;;;13.75;6.65;;;9.80;99.90;;;;;;5036387;28;20025;-79
2023/11/07 08:11:15;;;;;;;14.30;6.15;;;9.80;99.90;;;;;;5030125;28;20529;-79
2023/11/07 08:13:41;;;;;;;13.32;5.55;;;9.80;99.90;;;;;;5039707;28;20535;-78
2023/11/07 08:16:07;;;;;;;9.65;5.38;;;9.80;99.90;;;;;;5017913;28;20125;-79
2023/11/07 08:18:32;;;;;;;11.63;5.88;;;9.80;99.90;;;;;;5030964;28;20108;-78
2023/11/07 08:20:58;;;;;;;9.30;5.25;;;9.90;99.90;;;;;;5045737;28;20029;-79
2023/11/07 08:23:26;;;;;;;12.25;4.95;;;9.80;99.90;;;;;;5042312;28;20325;-78
2023/11/07 08:25:52;;;;;;;9.48;5.03;;;9.90;99.90;;;;;;5041984;28;20027;-78
2023/11/07 08:28:18;;;;;;;9.27;4.70;;;9.90;99.90;;;;;;5037365;28;20026;-78
2023/11/07 08:30:43;;;;;;;10.80;4.78;;;9.90;99.90;;;;;;5039209;28;20120;-79
2023/11/07 08:33:09;;;;;;;16.08;5.05;;;9.90;99.90;;;;;;5040374;28;20503;-78
2023/11/07 08:35:38;;;;;;;11.52;5.13;;;9.90;99.90;;;;;;5032557;28;20755;-79
2023/11/07 08:38:04;;;;;;;10.85;4.95;;;9.90;99.90;;;;;;5033753;28;20088;-79
2023/11/07 08:40:30;;;;;;;12.32;5.18;;;10.00;99.90;;;;;;5037290;28;20021;-79
2023/11/07 08:42:55;;;;;;;11.18;4.22;;;10.00;99.90;;;;;;5031237;28;20029;-78
2023/11/07 08:45:21;;;;;;;10.88;4.88;;;10.00;99.90;;;;;;5031986;28;20080;-78
2023/11/07 08:47:56;;;;;;;15.43;4.90;;;10.00;99.90;;;;;;5022845;28;20037;-78
2023/11/07 08:50:22;;;;;;;11.27;4.68;;;10.10;99.90;;;;;;5026486;28;20040;-78
2023/11/07 08:52:52;;;;;;;9.63;4.30;;;10.10;99.90;;;;;;5030509;28;20053;-78
2023/11/07 08:55:19;;;;;;;9.77;3.90;;;10.10;99.90;;;;;;5020574;28;20026;-79
2023/11/07 08:57:45;;;;;;;11.18;3.72;;;10.10;99.90;;;;;;5029102;28;20090;-78
2023/11/07 09:00:13;;;;;;;10.07;4.13;;;10.10;99.90;;;;;;5024540;28;20342;-77
2023/11/07 09:02:40;;;;;;;7.07;3.38;;;10.20;99.90;;;;;;5031190;28;20137;-78
2023/11/07 09:05:06;;;;;;;7.63;3.85;;;10.20;99.90;;;;;;5029891;28;20029;-79
2023/11/07 09:07:33;;;;;;;8.10;3.55;;;10.20;99.90;;;;;;5028016;28;20033;-78
2023/11/07 09:09:59;;;;;;;9.75;3.75;;;10.30;99.90;;;;;;5040987;28;20116;-78
2023/11/07 09:12:25;;;;;;;7.47;3.63;;;10.30;99.90;;;;;;5038928;28;20025;-78
2023/11/07 09:14:51;;;;;;;8.15;4.15;;;10.40;99.90;;;;;;5026985;28;20040;-77
2023/11/07 09:17:17;;;;;;;8.77;3.50;;;10.40;99.90;;;;;;5019478;28;20755;-78
2023/11/07 09:19:43;;;;;;;5.75;3.30;;;10.40;99.90;;;;;;5036835;28;20056;-78
2023/11/07 09:22:09;;;;;;;6.82;3.38;;;10.40;99.90;;;;;;5038299;28;20014;-77
2023/11/07 09:24:36;;;;;;;7.15;3.30;;;10.40;99.90;;;;;;5025412;28;20048;-78
2023/11/07 09:27:02;;;;;;;8.38;3.65;;;10.40;99.90;;;;;;5040778;28;20036;-78
2023/11/07 09:29:28;;;;;;;6.78;3.25;;;10.40;99.90;;;;;;5036845;28;20079;-78
2023/11/07 09:31:54;;;;;;;7.20;3.35;;;10.40;99.90;;;;;;5040585;28;20521;-80
2023/11/07 09:34:24;;;;;;;9.02;4.00;;;10.50;99.90;;;;;;5035180;28;20907;-79
2023/11/07 09:36:50;;;;;;;7.43;3.10;;;10.50;99.90;;;;;;5035632;28;20632;-78
2023/11/07 09:39:15;;;;;;;6.03;3.40;;;10.60;99.90;;;;;;5037952;28;20021;-79
2023/11/07 09:41:43;;;;;;;8.95;3.53;;;10.70;99.90;;;;;;5040006;28;20033;-79
2023/11/07 09:44:13;;;;;;;7.63;3.75;;;10.70;99.90;;;;;;5024644;28;20032;-78
2023/11/07 09:46:41;;;;;;;8.20;3.15;;;10.70;99.90;;;;;;5029684;28;20494;-78
2023/11/07 09:49:07;;;;;;;9.10;3.90;;;10.70;99.90;;;;;;5028335;28;20022;-79
2023/11/07 09:51:36;;;;;;;6.22;3.45;;;10.70;99.90;;;;;;5026050;28;20101;-78
2023/11/07 09:54:02;;;;;;;11.02;3.88;;;10.80;99.90;;;;;;5029146;28;20025;-79
2023/11/07 09:56:31;;;;;;;9.07;3.80;;;10.80;99.90;;;;;;5039192;28;20029;-77
2023/11/07 09:59:09;;;;;;;8.88;3.65;;;10.80;99.90;;;;;;5043712;28;20021;-78
2023/11/07 10:01:35;;;;;;;11.88;4.07;;;10.80;99.90;;;;;;5032339;28;20371;-78
2023/11/07 10:04:02;;;;;;;8.43;3.90;;;10.90;99.90;;;;;;5041217;28;20024;-78
2023/11/07 10:06:28;;;;;;;8.02;3.92;;;10.90;99.90;;;;;;5035377;28;20031;-78
2023/11/07 10:08:55;;;;;;;6.78;4.15;;;10.80;99.90;;;;;;5040033;28;20131;-78
2023/11/07 10:11:20;;;;;;;7.70;3.58;;;10.90;99.90;;;;;;5043336;28;20052;-78
2023/11/07 10:14:07;;;;;;;8.43;3.55;;;10.90;99.90;;;;;;5037497;28;20017;-78
2023/11/07 10:16:44;;;;;;;6.40;3.20;;;11.00;99.90;;;;;;5035307;28;20041;-79
2023/11/07 10:19:18;;;;;;;9.52;4.15;;;11.00;99.90;;;;;;5038904;28;20602;-79
2023/11/07 10:21:43;;;;;;;8.88;3.30;;;11.10;99.90;;;;;;5043667;28;20029;-78
2023/11/07 10:24:09;;;;;;;7.10;3.17;;;11.10;99.90;;;;;;5037076;28;20027;-78
2023/11/07 10:26:35;;;;;;;12.20;3.60;;;11.20;99.90;;;;;;5034991;28;20470;-78
2023/11/07 10:29:14;;;;;;;7.28;3.20;;;11.20;99.90;;;;;;5041913;28;20017;-78
2023/11/07 10:31:43;;;;;;;8.98;3.40;;;11.40;99.90;;;;;;5043416;28;20439;-79
2023/11/07 10:34:16;;;;;;;7.15;2.88;;;11.50;99.90;;;;;;5035095;28;20489;-78
2023/11/07 10:36:43;;;;;;;9.00;3.22;;;11.60;99.90;;;;;;5035273;28;20133;-77
2023/11/07 10:39:23;;;;;;;10.20;3.17;;;11.70;99.90;;;;;;5042344;28;20029;-77
2023/11/07 10:41:49;;;;;;;7.97;2.85;;;11.80;99.90;;;;;;5043339;28;20039;-77
2023/11/07 10:44:30;;;;;;;5.55;2.35;;;11.90;99.90;;;;;;5029256;28;20477;-80
2023/11/07 10:47:00;;;;;;;;;;;11.90;99.90;;;;;;5043610;28;20116;-78
2023/11/07 10:49:26;;;;;;;7.75;2.58;;;12.00;99.90;;;;;;5036077;28;19905;-77
2023/11/07 10:51:52;;;;;;;7.00;2.60;;;12.10;99.90;;;;;;5036017;28;20022;-77
2023/11/07 10:54:21;;;;;;;5.45;2.30;;;12.10;99.90;;;;;;5041423;28;20562;-77
2023/11/07 10:56:50;;;;;;;6.80;2.33;;;12.20;99.90;;;;;;5035855;28;20598;-78
2023/11/07 10:59:24;;;;;;;6.65;2.47;;;12.20;99.90;;;;;;5045522;28;20010;-77
2023/11/07 11:01:51;;;;;;;4.75;1.95;;;12.30;99.90;;;;;;5036406;28;20029;-78
2023/11/07 11:04:20;;;;;;;6.53;2.40;;;12.30;99.90;;;;;;5046097;28;20036;-78
2023/11/07 11:07:00;;;;;;;5.63;2.03;;;12.40;99.90;;;;;;5032815;28;20017;-77
2023/11/07 11:09:27;;;;;;;7.47;2.35;;;12.50;99.90;;;;;;5042365;28;20108;-77
2023/11/07 11:11:58;;;;;;;6.05;2.42;;;12.60;99.90;;;;;;5025849;28;20048;-82
2023/11/07 11:14:23;;;;;;;8.18;2.38;;;12.60;99.90;;;;;;5041066;28;20013;-82
2023/11/07 11:16:50;;;;;;;7.18;2.25;;;12.70;99.90;;;;;;5032780;28;20051;-76
2023/11/07 11:19:16;;;;;;;8.63;2.50;;;12.90;99.90;;;;;;5030917;28;20128;-77
2023/11/07 11:21:51;;;;;;;6.97;2.00;;;12.90;99.90;;;;;;5029396;28;20410;-77
2023/11/07 11:24:31;;;;;;;5.25;2.25;;;13.00;99.90;;;;;;5028490;28;20036;-78
2023/11/07 11:27:10;;;;;;;8.27;3.05;;;13.10;99.90;;;;;;5037528;28;20031;-77
2023/11/07 11:29:45;;;;;;;5.43;2.13;;;13.10;99.90;;;;;;5041123;28;20072;-79
2023/11/07 11:32:24;;;;;;;6.20;2.00;;;13.10;99.90;;;;;;5032909;28;20482;-77
2023/11/07 11:34:57;;;;;;;5.57;1.90;;;13.10;99.90;;;;;;5032059;28;20403;-77
2023/11/07 11:37:23;;;;;;;10.68;2.17;;;13.10;99.90;;;;;;5019333;28;20029;-77
2023/11/07 11:39:49;;;;;;;7.35;1.77;;;13.10;99.90;;;;;;5034394;28;20116;-77
2023/11/07 11:42:15;;;;;;;5.80;1.70;;;13.20;99.90;;;;;;5040251;28;20101;-78
2023/11/07 11:44:41;;;;;;;5.50;2.00;;;13.30;99.90;;;;;;5020876;28;20038;-77
2023/11/07 11:47:10;;;;;;;10.23;2.28;;;13.40;99.90;;;;;;5034677;28;20092;-78
2023/11/07 11:49:42;;;;;;;9.25;1.80;;;13.50;99.90;;;;;;5043288;28;20431;-77
2023/11/07 11:52:34;;;;;;;6.28;2.00;;;13.60;99.90;;;;;;5032579;28;20029;-77
2023/11/07 11:55:04;;;;;;;7.85;2.20;;;13.50;99.90;;;;;;5035649;28;20021;-76
2023/11/07 11:57:30;;;;;;;8.77;2.03;;;13.40;99.90;;;;;;5040643;28;20025;-77
2023/11/07 12:00:06;;;;;;;7.22;1.95;;;13.30;99.90;;;;;;5036113;28;20033;-77
2023/11/07 12:02:41;;;;;;;5.60;1.70;;;13.10;99.90;;;;;;5031657;28;20029;-77
2023/11/07 12:05:18;;;;;;;6.80;1.58;;;13.10;99.90;;;;;;5016188;28;20107;-79
2023/11/07 12:07:45;;;;;;;4.97;1.75;;;13.20;99.90;;;;;;5028999;28;20033;-77
2023/11/07 12:10:13;;;;;;;7.63;2.08;;;13.10;99.90;;;;;;5032765;28;20483;-77
2023/11/07 12:12:39;;;;;;;4.32;1.40;;;13.10;99.90;;;;;;5046125;28;20055;-78
2023/11/07 12:15:07;;;;;;;5.88;2.05;;;13.10;99.90;;;;;;5031017;28;20020;-77
2023/11/07 12:17:47;;;;;;;4.45;1.70;;;13.10;99.90;;;;;;5036075;28;20402;-77
2023/11/07 12:20:17;;;;;;;6.83;1.60;;;13.00;99.90;;;;;;5029659;28;20028;-77
2023/11/07 12:22:46;;;;;;;7.93;2.25;;;13.00;99.90;;;;;;5029015;28;20024;-76
2023/11/07 12:25:19;;;;;;;6.95;1.63;;;13.00;99.90;;;;;;5042649;28;20029;-77
2023/11/07 12:28:05;;;;;;;4.53;1.77;;;13.10;99.90;;;;;;5037839;28;20048;-78
2023/11/07 12:30:34;;;;;;;6.18;1.77;;;13.10;99.90;;;;;;5031103;28;20025;-77
2023/11/07 12:33:09;;;;;;;10.15;2.60;;;13.10;99.90;;;;;;5035149;28;20395;-77
2023/11/07 12:35:35;;;;;;;6.60;2.08;;;13.20;99.90;;;;;;5040420;28;20100;-76
2023/11/07 12:38:11;;;;;;;7.05;1.73;;;13.20;99.90;;;;;;5038666;28;20044;-77
2023/11/07 12:40:39;;;;;;;8.35;1.98;;;13.30;99.90;;;;;;5032464;28;20051;-77
2023/11/07 12:43:07;;;;;;;5.68;1.80;;;13.30;99.90;;;;;;5035983;28;20053;-77
2023/11/07 12:45:37;;;;;;;3.25;1.30;;;13.40;99.90;;;;;;5040172;28;20029;-77
2023/11/07 12:48:09;;;;;;;6.30;1.88;;;13.40;99.90;;;;;;5036955;28;20063;-76